Time;durP1;ratioP1;P1;durP2;ratioP2;P2;SDS_P1;SDS_P2;PMS_P1;PMS_P2;Temp;Humidity;BMP_temperature;BMP_pressure;BME280_temperature;BME280_humidity;BME280_pressure;Samples;Min_cycle;Max_cycle;Signal;HPM_P1;HPM_P2
2022/11/18 00:00:12;;;;;;;18.77;11.75;;;;;;;9.28;83.19;92927.81;5066755;28;20021;-77
2022/11/18 00:02:37;;;;;;;24.30;13.15;;;;;;;9.29;83.47;92934.66;5066628;28;20215;-77
2022/11/18 00:05:03;;;;;;;21.05;12.00;;;;;;;9.28;83.51;92930.47;5066363;28;20017;-77
2022/11/18 00:07:28;;;;;;;26.77;14.07;;;;;;;9.31;83.47;92926.38;5066652;28;20025;-81
2022/11/18 00:09:54;;;;;;;25.40;13.13;;;;;;;9.34;83.27;92920.38;5066716;28;20254;-81
2022/11/18 00:15:04;;;;;;;21.25;12.02;;;;;;;9.31;83.93;92934.34;5066398;28;20267;-80
2022/11/18 00:17:31;;;;;;;19.85;11.45;;;;;;;9.31;83.83;92932.47;5066439;28;20017;-80
2022/11/18 00:19:56;;;;;;;17.20;9.93;;;;;;;9.28;84.04;92925.16;5066540;28;20024;-80
2022/11/18 00:22:22;;;;;;;21.17;10.77;;;;;;;9.34;84.02;92921.19;5066336;28;20028;-80
2022/11/18 00:24:47;;;;;;;16.58;10.07;;;;;;;9.29;84.28;92917.94;5066255;28;20032;-80
2022/11/18 00:27:12;;;;;;;14.98;8.50;;;;;;;9.31;84.50;92923.72;5065975;28;20094;-80
2022/11/18 00:29:38;;;;;;;17.30;8.55;;;;;;;9.31;84.63;92921.81;5066206;28;20021;-80
2022/11/18 00:32:04;;;;;;;13.32;7.07;;;;;;;9.34;84.15;92923.03;5066000;28;20017;-79
2022/11/18 00:34:29;;;;;;;16.60;8.20;;;;;;;9.31;83.70;92921.81;5065816;28;20301;-78
2022/11/18 00:36:55;;;;;;;18.25;8.50;;;;;;;9.33;84.20;92927.59;5066277;28;20020;-78
2022/11/18 00:39:21;;;;;;;18.83;9.00;;;;;;;9.34;84.37;92915.88;5066027;28;20311;-79
2022/11/18 00:44:32;;;;;;;13.43;6.97;;;;;;;9.36;84.19;92912.84;5065855;28;20025;-78
2022/11/18 00:46:57;;;;;;;16.23;7.60;;;;;;;9.34;83.94;92923.03;5065687;28;20211;-78
2022/11/18 00:49:23;;;;;;;11.90;7.30;;;;;;;9.36;83.55;92920.81;5065790;28;20021;-78
2022/11/18 00:51:49;;;;;;;14.10;7.57;;;;;;;9.33;83.61;92924.94;5065776;28;20043;-79
2022/11/18 00:54:14;;;;;;;12.38;8.20;;;;;;;9.32;83.95;92917.28;5065531;28;20088;-79
2022/11/18 00:56:40;;;;;;;13.23;8.18;;;;;;;9.32;83.96;92915.41;5064388;28;20099;-79
2022/11/18 00:59:06;;;;;;;14.50;7.78;;;;;;;9.33;83.35;92924.16;5064285;28;20056;-80
2022/11/18 01:01:31;;;;;;;15.73;7.95;;;;;;;9.28;83.33;92922.50;5064311;28;20029;-80
2022/11/18 01:03:57;;;;;;;15.68;8.38;;;;;;;9.25;83.80;92923.13;5064464;28;20250;-79
2022/11/18 01:06:23;;;;;;;12.02;7.60;;;;;;;9.23;83.79;92914.69;5064010;28;20031;-79
2022/11/18 01:08:49;;;;;;;13.43;8.10;;;;;;;9.18;83.52;92913.03;5064204;28;20052;-79
2022/11/18 01:13:58;;;;;;;13.88;7.65;;;;;;;9.10;83.28;92927.19;5064077;28;20028;-79
2022/11/18 01:16:26;;;;;;;14.48;8.38;;;;;;;9.01;83.67;92908.63;5064177;28;20033;-79
2022/11/18 01:18:52;;;;;;;15.38;8.57;;;;;;;9.02;83.99;92920.06;5064019;28;20146;-79
2022/11/18 01:21:17;;;;;;;15.55;7.85;;;;;;;8.99;83.58;92926.00;5062867;28;20239;-80
2022/11/18 01:23:44;;;;;;;12.10;7.15;;;;;;;8.96;83.82;92927.44;5063845;28;20016;-79
2022/11/18 01:26:12;;;;;;;15.93;8.68;;;;;;;8.95;84.35;92919.78;5063961;28;20096;-79
2022/11/18 01:28:38;;;;;;;13.98;8.10;;;;;;;8.96;84.01;92927.44;5064111;28;20024;-79
2022/11/18 01:31:05;;;;;;;11.95;7.85;;;;;;;8.91;84.50;92926.84;5063817;28;20230;-79
2022/11/18 01:33:31;;;;;;;13.73;7.43;;;;;;;8.91;85.13;92927.63;5063812;28;20028;-78
2022/11/18 01:35:56;;;;;;;11.70;7.15;;;;;;;8.92;85.21;92920.44;5063719;28;20088;-79
2022/11/18 01:38:21;;;;;;;11.48;6.70;;;;;;;8.92;85.30;92925.75;5063798;28;20024;-80
2022/11/18 01:40:47;;;;;;;10.52;7.13;;;;;;;8.89;84.69;92921.09;5063778;28;20343;-79
2022/11/18 01:43:14;;;;;;;9.73;6.30;;;;;;;8.84;84.49;92917.53;5063598;28;20036;-78
2022/11/18 01:45:42;;;;;;;12.15;7.03;;;;;;;8.86;84.70;92914.53;5063832;28;20027;-78
2022/11/18 01:48:12;;;;;;;12.55;7.13;;;;;;;8.84;83.82;92906.13;5063633;28;20020;-78
2022/11/18 01:50:51;;;;;;;11.75;5.80;;;;;;;8.77;84.24;92914.63;5063503;28;20020;-78
2022/11/18 01:53:23;;;;;;;12.77;6.43;;;;;;;8.79;84.25;92916.94;5063531;28;20041;-79
2022/11/18 01:55:52;;;;;;;11.90;7.25;;;;;;;8.81;85.15;92920.03;5063371;28;20067;-78
2022/11/18 01:58:26;;;;;;;12.75;6.90;;;;;;;8.80;85.30;92915.84;5018494;28;1300185;-78
2022/11/18 02:00:52;;;;;;;11.73;6.88;;;;;;;8.82;85.13;92921.63;5064400;28;20024;-78
2022/11/18 02:03:17;;;;;;;12.65;6.40;;;;;;;8.83;84.82;92918.63;5064167;28;20037;-78
2022/11/18 02:05:46;;;;;;;12.77;7.15;;;;;;;8.83;85.35;92912.53;5064416;28;20147;-78
2022/11/18 02:08:13;;;;;;;11.80;6.65;;;;;;;8.85;84.89;92926.25;5064306;28;20025;-78
2022/11/18 02:10:39;;;;;;;16.25;6.90;;;;;;;8.83;84.16;92923.16;5064178;28;20035;-78
2022/11/18 02:13:04;;;;;;;11.43;6.95;;;;;;;8.84;84.10;92922.06;5064157;28;20104;-78
2022/11/18 02:15:36;;;;;;;12.00;6.47;;;;;;;8.83;84.49;92921.28;5064110;28;20032;-78
2022/11/18 02:18:15;;;;;;;10.85;6.57;;;;;;;8.81;84.33;92926.16;5063093;28;20035;-78
2022/11/18 02:20:45;;;;;;;10.20;5.70;;;;;;;8.79;83.87;92923.03;5064139;28;20052;-79
2022/11/18 02:23:48;;;;;;;9.93;5.80;;;;;;;8.77;83.78;92925.25;5063910;28;20033;-79
2022/11/18 02:26:16;;;;;;;11.57;5.88;;;;;;;8.73;83.13;92918.22;5063827;28;20044;-79
2022/11/18 02:29:00;;;;;;;11.73;5.80;;;;;;;8.69;82.63;92918.13;5063868;28;20021;-78
2022/11/18 02:31:49;;;;;;;11.05;5.35;;;;;;;8.66;82.53;92915.31;5064047;28;20071;-79
2022/11/18 02:34:50;;;;;;;13.77;5.93;;;;;;;8.61;82.34;92914.41;5063718;28;20017;-79
2022/11/18 02:37:39;;;;;;;9.70;5.72;;;;;;;8.43;83.13;92903.13;5060486;28;20331;-80
2022/11/18 02:40:18;;;;;;;13.90;5.25;;;;;;;8.41;83.73;92905.31;5062391;28;20020;-80
2022/11/18 02:42:49;;;;;;;8.85;5.05;;;;;;;8.42;83.38;92914.06;5062342;28;20094;-79
2022/11/18 02:45:17;;;;;;;11.05;5.13;;;;;;;8.37;83.29;92912.34;5063726;28;20024;-80
2022/11/18 02:47:46;;;;;;;8.88;5.00;;;;;;;8.31;82.76;92908.31;5063394;28;20330;-79
2022/11/18 02:50:17;;;;;;;8.68;4.65;;;;;;;8.27;83.45;92893.38;5063462;28;20028;-78
2022/11/18 02:52:45;;;;;;;8.73;5.28;;;;;;;8.24;83.58;92903.53;5063362;28;20036;-78
2022/11/18 02:55:13;;;;;;;10.20;5.47;;;;;;;8.16;83.72;92911.53;5063218;28;20020;-78
2022/11/18 02:57:42;;;;;;;8.60;5.28;;;;;;;8.10;83.58;92916.25;5063310;28;20095;-78
2022/11/18 03:00:08;;;;;;;12.45;6.10;;;;;;;8.10;84.60;92896.88;5063372;28;20024;-78
2022/11/18 03:02:46;;;;;;;11.00;6.47;;;;;;;8.13;85.82;92910.28;5063131;28;20040;-77
2022/11/18 03:05:31;;;;;;;13.63;7.25;;;;;;;8.12;86.40;92918.56;5063318;28;20020;-77
2022/11/18 03:08:07;;;;;;;14.90;6.53;;;;;;;8.13;87.18;92928.88;5063627;28;20028;-78
2022/11/18 03:10:41;;;;;;;11.98;6.85;;;;;;;8.15;86.60;92918.72;5063021;28;20127;-78
2022/11/18 03:13:19;;;;;;;12.65;7.28;;;;;;;8.15;86.65;92910.75;5063131;28;20028;-78
2022/11/18 03:16:02;;;;;;;16.42;7.47;;;;;;;8.16;86.34;92909.66;5063006;28;20284;-78
2022/11/18 03:18:33;;;;;;;13.02;7.28;;;;;;;8.15;85.99;92910.75;5062848;28;20051;-78
2022/11/18 03:21:09;;;;;;;18.98;7.63;;;;;;;8.14;86.04;92906.56;5061864;28;20016;-78
2022/11/18 03:23:40;;;;;;;15.45;7.45;;;;;;;8.14;85.76;92909.22;5062932;28;20092;-78
2022/11/18 03:26:20;;;;;;;15.30;8.75;;;;;;;8.15;86.26;92904.66;5062938;28;20084;-78
2022/11/18 03:29:06;;;;;;;17.60;8.55;;;;;;;8.20;86.75;92902.63;5062797;28;20024;-78
2022/11/18 03:31:41;;;;;;;15.05;8.70;;;;;;;8.22;86.42;92911.03;5062799;28;20078;-79
2022/11/18 03:34:32;;;;;;;16.50;8.77;;;;;;;8.18;86.13;92902.16;5062787;28;20033;-78
2022/11/18 03:37:01;;;;;;;21.73;10.60;;;;;;;8.19;85.48;92909.00;5058682;28;20044;-79
2022/11/18 03:39:31;;;;;;;20.83;9.32;;;;;;;8.20;86.40;92902.63;5062794;28;20029;-78
2022/11/18 03:42:05;;;;;;;20.38;10.52;;;;;;;8.24;86.53;92908.84;5062938;28;20024;-79
2022/11/18 03:44:36;;;;;;;21.35;10.63;;;;;;;8.26;86.63;92900.53;5062679;28;20164;-79
2022/11/18 03:47:09;;;;;;;20.95;11.20;;;;;;;8.28;86.63;92894.91;5062761;28;20024;-79
2022/11/18 03:49:44;;;;;;;30.60;12.20;;;;;;;8.26;86.18;92891.81;5062649;28;20366;-79
2022/11/18 03:52:32;;;;;;;23.48;10.98;;;;;;;8.27;85.96;92891.47;5062508;28;20282;-79
2022/11/18 03:55:02;;;;;;;26.38;11.90;;;;;;;8.25;85.72;92896.34;5062579;28;20258;-79
2022/11/18 03:58:14;;;;;;;19.38;10.38;;;;;;;8.24;85.08;92892.91;5062421;28;20057;-79
2022/11/18 04:00:44;;;;;;;21.15;11.30;;;;;;;8.21;84.21;92887.47;5062361;28;20051;-79
2022/11/18 04:03:10;;;;;;;22.58;11.27;;;;;;;8.19;84.23;92895.75;5062602;28;20036;-79
2022/11/18 04:05:39;;;;;;;17.23;10.52;;;;;;;8.13;84.43;92880.31;5062410;28;20027;-79
2022/11/18 04:08:12;;;;;;;18.00;10.55;;;;;;;8.09;84.76;92880.19;5062352;28;20024;-79
2022/11/18 04:10:54;;;;;;;17.98;10.75;;;;;;;8.07;84.56;92887.69;5062593;28;20025;-79
2022/11/18 04:13:31;;;;;;;17.05;9.82;;;;;;;7.99;85.19;92877.91;5062395;28;20062;-79
2022/11/18 04:15:56;;;;;;;21.63;9.52;;;;;;;7.97;85.65;92888.81;5062474;28;20035;-79
2022/11/18 04:18:22;;;;;;;21.55;10.20;;;;;;;7.88;86.41;92893.41;5062350;28;20315;-79
2022/11/18 04:20:47;;;;;;;18.65;10.57;;;;;;;7.80;87.18;92884.38;5062255;28;20025;-81
2022/11/18 04:23:13;;;;;;;20.10;10.68;;;;;;;7.81;87.94;92891.22;5061223;28;20024;-81
2022/11/18 04:25:38;;;;;;;22.63;10.65;;;;;;;7.85;88.11;92899.34;5062320;28;20020;-81
2022/11/18 04:28:04;;;;;;;17.65;10.95;;;;;;;7.80;88.59;92888.91;5062206;28;20040;-80
2022/11/18 04:30:30;;;;;;;21.10;10.02;;;;;;;7.85;88.84;92891.38;5062345;28;20250;-80
2022/11/18 04:32:56;;;;;;;19.80;10.27;;;;;;;7.87;89.02;92902.44;5062327;28;20116;-80
2022/11/18 04:35:21;;;;;;;24.30;11.68;;;;;;;7.87;89.26;92891.84;5062197;28;20347;-80
2022/11/18 04:37:47;;;;;;;17.83;10.95;;;;;;;7.92;89.61;92896.97;5062065;28;20092;-80
2022/11/18 04:40:12;;;;;;;24.48;11.13;;;;;;;7.92;89.43;92904.94;5063052;28;20024;-80
2022/11/18 04:42:37;;;;;;;23.65;11.60;;;;;;;7.95;89.57;92892.91;5065827;28;20025;-80
2022/11/18 04:45:04;;;;;;;20.00;11.80;;;;;;;7.95;89.26;92909.59;5065826;28;20013;-80
2022/11/18 04:47:29;;;;;;;20.52;11.00;;;;;;;8.00;89.11;92908.66;5065855;28;20135;-80
2022/11/18 04:49:55;;;;;;;16.50;10.02;;;;;;;7.98;88.34;92916.16;5065966;28;20021;-80
2022/11/18 04:52:20;;;;;;;17.17;9.93;;;;;;;7.94;86.58;92909.94;5065784;28;20020;-80
2022/11/18 04:54:46;;;;;;;17.13;9.65;;;;;;;7.84;86.26;92911.06;5065601;28;20029;-80
2022/11/18 04:57:12;;;;;;;19.02;10.55;;;;;;;7.78;86.58;92913.09;5064253;28;20031;-80
2022/11/18 04:59:37;;;;;;;41.13;10.20;;;;;;;7.63;85.79;92916.25;5065694;28;20056;-80
2022/11/18 05:02:03;;;;;;;93.97;14.00;;;;;;;7.57;85.56;92923.63;5065327;28;20027;-79
2022/11/18 05:04:31;;;;;;;145.50;17.40;;;;;;;7.37;85.37;92914.47;5065512;28;20025;-79
2022/11/18 05:06:57;;;;;;;192.52;20.75;;;;;;;7.29;85.89;92909.97;5065629;28;20041;-79
2022/11/18 05:09:23;;;;;;;180.30;18.48;;;;;;;7.24;85.93;92912.78;5065514;28;20021;-79
2022/11/18 05:14:33;;;;;;;298.88;23.02;;;;;;;7.16;86.55;92908.28;5065274;28;20051;-79
2022/11/18 05:17:00;;;;;;;140.27;20.02;;;;;;;7.14;87.23;92915.75;5065294;28;20342;-78
2022/11/18 05:19:26;;;;;;;62.40;17.83;;;;;;;7.06;86.97;92912.03;5065481;28;20021;-79
2022/11/18 05:21:52;;;;;;;119.30;19.77;;;;;;;7.06;87.44;92913.91;5065309;28;20099;-78
2022/11/18 05:24:17;;;;;;;431.00;26.35;;;;;;;7.10;87.89;92920.13;5065110;28;20373;-78
2022/11/18 05:26:43;;;;;;;317.95;23.85;;;;;;;7.10;87.91;92922.78;5064809;28;20035;-78
2022/11/18 05:29:08;;;;;;;226.68;20.50;;;;;;;7.05;87.74;92915.78;5065103;28;20032;-79
2022/11/18 05:31:34;;;;;;;107.63;18.63;;;;;;;7.05;87.97;92922.94;5065035;28;20021;-79
2022/11/18 05:33:59;;;;;;;254.63;26.25;;;;;;;7.03;88.01;92937.28;5064638;28;20021;-78
2022/11/18 05:36:25;;;;;;;100.47;18.85;;;;;;;6.99;87.95;92920.44;5064966;28;20044;-80
2022/11/18 05:38:50;;;;;;;122.55;20.73;;;;;;;7.02;88.40;92934.94;5064921;28;20131;-79
2022/11/18 05:44:02;;;;;;;152.05;20.20;;;;;;;6.99;88.86;92920.44;5064645;28;20071;-79
2022/11/18 05:46:30;;;;;;;107.32;17.05;;;;;;;7.00;87.98;92929.97;5064770;28;20028;-79
2022/11/18 05:48:55;;;;;;;133.35;16.73;;;;;;;6.89;87.03;92927.94;5064721;28;20032;-79
2022/11/18 05:51:21;;;;;;;51.20;16.38;;;;;;;6.77;87.55;92908.13;5063941;28;20070;-79
2022/11/18 05:53:49;;;;;;;34.53;14.68;;;;;;;6.78;88.51;92919.53;5063976;28;20086;-79
2022/11/18 05:56:27;;;;;;;22.13;12.45;;;;;;;6.84;88.83;92918.28;5064431;28;20033;-79
2022/11/18 05:58:53;;;;;;;22.05;13.77;;;;;;;6.87;89.00;92922.94;5064199;28;20049;-78
2022/11/18 06:01:23;;;;;;;26.95;13.45;;;;;;;6.88;88.87;92921.88;5064388;28;20108;-79
2022/11/18 06:03:48;;;;;;;23.27;13.73;;;;;;;6.99;89.01;92931.03;5064507;28;20095;-79
2022/11/18 06:06:19;;;;;;;29.42;16.02;;;;;;;7.05;89.43;92920.31;5064268;28;20315;-78
2022/11/18 06:08:53;;;;;;;28.13;15.07;;;;;;;7.17;89.66;92925.75;5064196;28;20025;-79
2022/11/18 06:11:20;;;;;;;24.90;13.77;;;;;;;7.30;89.54;92926.66;5064154;28;20070;-79
2022/11/18 06:14:10;;;;;;;30.27;14.35;;;;;;;7.39;89.15;92912.28;5064219;28;20032;-79
2022/11/18 06:16:38;;;;;;;42.15;24.45;;;;;;;7.44;88.83;92898.84;5064121;28;20032;-79
2022/11/18 06:19:03;;;;;;;33.80;19.08;;;;;;;7.54;88.87;92904.91;5064158;28;20102;-78
2022/11/18 06:21:29;;;;;;;33.28;19.98;;;;;;;7.62;89.42;92909.41;5063852;28;20029;-79
2022/11/18 06:23:55;;;;;;;30.13;17.27;;;;;;;7.70;89.23;92929.81;5064020;28;20227;-79
2022/11/18 06:26:21;;;;;;;29.48;16.17;;;;;;;7.73;89.36;92921.22;5064014;28;20021;-79
2022/11/18 06:28:47;;;;;;;31.38;14.65;;;;;;;7.81;89.22;92911.69;5063866;28;20192;-79
2022/11/18 06:31:15;;;;;;;64.65;21.25;;;;;;;7.92;87.96;92904.16;5063686;28;20099;-79
2022/11/18 06:33:41;;;;;;;61.70;20.45;;;;;;;7.84;86.60;92916.38;5063609;28;20333;-78
2022/11/18 06:36:07;;;;;;;44.28;19.52;;;;;;;7.81;87.02;92901.06;5063457;28;20068;-78
2022/11/18 06:38:32;;;;;;;45.47;22.80;;;;;;;7.82;87.09;92908.72;5063568;28;20020;-78
2022/11/18 06:41:00;;;;;;;43.33;17.40;;;;;;;7.81;86.96;92903.72;5063710;28;20088;-78
2022/11/18 06:43:40;;;;;;;37.28;16.70;;;;;;;7.84;86.95;92903.88;5063629;28;20255;-78
2022/11/18 06:48:51;;;;;;;57.35;23.95;;;;;;;7.91;87.47;92910.56;5063415;28;20093;-78
2022/11/18 06:51:17;;;;;;;56.00;22.27;;;;;;;8.00;87.37;92909.44;5063292;28;20036;-78
2022/11/18 06:53:42;;;;;;;64.00;23.17;;;;;;;8.08;87.08;92912.34;5063191;28;20025;-78
2022/11/18 06:56:11;;;;;;;49.13;20.90;;;;;;;8.15;86.60;92918.72;5063302;28;20052;-78
2022/11/18 06:58:37;;;;;;;45.67;20.02;;;;;;;8.20;87.09;92913.25;5063054;28;20357;-78
2022/11/18 07:01:12;;;;;;;55.85;21.88;;;;;;;8.34;86.82;92917.53;5063162;28;20020;-77
2022/11/18 07:03:39;;;;;;;46.70;20.13;;;;;;;8.42;86.77;92917.50;5062678;28;20024;-78
2022/11/18 07:06:05;;;;;;;50.17;22.13;;;;;;;8.51;87.04;92928.06;5063030;28;20016;-78
2022/11/18 07:08:33;;;;;;;61.80;22.15;;;;;;;8.57;86.61;92915.41;5063113;28;20023;-78
2022/11/18 07:10:59;;;;;;;62.42;23.05;;;;;;;8.62;86.64;92910.66;5062174;28;20306;-78
2022/11/18 07:13:24;;;;;;;50.40;22.73;;;;;;;8.74;86.33;92923.22;5063284;28;20025;-78
2022/11/18 07:15:50;;;;;;;59.90;27.35;;;;;;;8.83;86.32;92915.19;5062907;28;20035;-78
2022/11/18 07:18:15;;;;;;;59.80;30.00;;;;;;;8.91;86.43;92903.72;5062933;28;20151;-78
2022/11/18 07:20:40;;;;;;;52.25;25.38;;;;;;;8.98;86.37;92896.00;5063271;28;20033;-79
2022/11/18 07:23:06;;;;;;;80.00;32.20;;;;;;;9.06;86.29;92882.94;5063000;28;20361;-78
2022/11/18 07:25:31;;;;;;;67.97;28.85;;;;;;;9.15;86.38;92881.00;5062747;28;20025;-78
2022/11/18 07:27:57;;;;;;;73.78;28.75;;;;;;;9.19;86.27;92871.25;5063108;28;20024;-78
2022/11/18 07:30:23;;;;;;;65.20;26.98;;;;;;;9.26;86.39;92868.06;5063050;28;20025;-79
2022/11/18 07:32:48;;;;;;;61.80;24.35;;;;;;;9.38;86.90;92876.06;5062788;28;20023;-77
2022/11/18 07:35:15;;;;;;;41.88;21.95;;;;;;;9.41;87.47;92873.53;5062629;28;20021;-79
2022/11/18 07:37:41;;;;;;;45.70;21.77;;;;;;;9.49;87.71;92869.22;5062960;28;20021;-80
2022/11/18 07:40:07;;;;;;;36.83;18.40;;;;;;;9.58;87.69;92869.91;5062757;28;20196;-79
2022/11/18 07:42:41;;;;;;;41.88;20.00;;;;;;;9.59;88.19;92852.84;5062580;28;20017;-78
2022/11/18 07:45:11;;;;;;;57.33;27.35;;;;;;;9.56;88.53;92871.34;5062877;28;20096;-78
2022/11/18 07:47:36;;;;;;;55.58;28.02;;;;;;;9.61;88.59;92874.56;5062687;28;20047;-78
2022/11/18 07:50:05;;;;;;;63.90;29.77;;;;;;;9.66;88.08;92878.13;5062497;28;20323;-78
2022/11/18 07:52:30;;;;;;;63.65;23.70;;;;;;;9.67;87.58;92877.81;5062870;28;20036;-78
2022/11/18 07:54:56;;;;;;;153.05;26.77;;;;;;;9.67;87.64;92890.31;5062629;28;20315;-78
2022/11/18 07:57:21;;;;;;;82.57;27.52;;;;;;;9.60;87.65;92896.94;5062334;28;20025;-78
2022/11/18 07:59:47;;;;;;;68.47;26.73;;;;;;;9.61;88.16;92908.38;5062718;28;20193;-79
2022/11/18 08:02:12;;;;;;;87.30;26.58;;;;;;;9.69;88.37;92907.53;5062521;28;20214;-79
2022/11/18 08:04:38;;;;;;;166.98;26.23;;;;;;;9.82;88.36;92918.94;5062381;28;20124;-79
2022/11/18 08:07:03;;;;;;;175.85;26.35;;;;;;;9.84;88.38;92922.81;5062434;28;20020;-79
2022/11/18 08:09:29;;;;;;;76.03;25.08;;;;;;;9.94;88.86;92924.28;5062466;28;20029;-79
2022/11/18 08:11:54;;;;;;;81.38;24.63;;;;;;;10.12;88.78;92938.19;5062539;28;20088;-78
2022/11/18 08:14:22;;;;;;;74.85;28.85;;;;;;;10.19;87.44;92938.38;5059936;28;20073;-78
2022/11/18 08:16:48;;;;;;;58.55;26.17;;;;;;;10.19;87.79;92919.75;5063929;28;20239;-78
2022/11/18 08:19:13;;;;;;;74.35;26.45;;;;;;;10.23;87.65;92899.31;5064558;28;20088;-78
2022/11/18 08:21:39;;;;;;;70.47;26.00;;;;;;;10.30;87.31;92906.81;5064401;28;20023;-78
2022/11/18 08:24:04;;;;;;;75.03;26.55;;;;;;;10.37;87.46;92896.34;5064482;28;20374;-78
2022/11/18 08:26:30;;;;;;;73.97;26.30;;;;;;;10.47;86.49;92889.81;5064553;28;20017;-79
2022/11/18 08:28:56;;;;;;;66.47;28.33;;;;;;;10.48;86.42;92895.91;5064591;28;20021;-77
2022/11/18 08:31:24;;;;;;;77.65;26.17;;;;;;;10.51;86.26;92880.03;5064011;28;20215;-77
2022/11/18 08:34:00;;;;;;;70.95;24.45;;;;;;;10.56;86.59;92884.34;5064324;28;20025;-77
2022/11/18 08:36:29;;;;;;;51.10;24.13;;;;;;;10.63;86.66;92873.91;5064879;28;20029;-77
2022/11/18 08:38:56;;;;;;;51.83;23.10;;;;;;;10.73;86.88;92870.75;5064622;28;20020;-77
2022/11/18 08:41:43;;;;;;;56.67;22.38;;;;;;;10.86;86.78;92876.06;5064551;28;20063;-77
2022/11/18 08:44:13;;;;;;;48.55;22.10;;;;;;;10.97;86.88;92863.78;5065662;28;20029;-81
2022/11/18 08:46:39;;;;;;;46.20;21.50;;;;;;;11.14;86.48;92860.06;5065974;28;20062;-81
2022/11/18 08:49:04;;;;;;;52.60;24.42;;;;;;;11.27;85.80;92856.22;5065765;28;20303;-81
2022/11/18 08:51:30;;;;;;;52.80;22.15;;;;;;;11.41;84.75;92856.59;5065400;28;20024;-78
2022/11/18 08:53:55;;;;;;;49.55;22.67;;;;;;;11.48;83.25;92855.22;5065884;28;20017;-78
2022/11/18 08:56:22;;;;;;;49.25;20.85;;;;;;;11.54;83.35;92821.81;5065621;28;20095;-79
2022/11/18 08:58:48;;;;;;;41.38;18.80;;;;;;;11.62;83.45;92815.53;5065223;28;20338;-79
2022/11/18 09:01:13;;;;;;;31.80;16.23;;;;;;;11.73;82.90;92819.25;5065540;28;20093;-79
2022/11/18 09:03:39;;;;;;;27.90;15.57;;;;;;;11.86;82.17;92817.25;5065606;28;20021;-81
2022/11/18 09:06:04;;;;;;;25.38;12.82;;;;;;;11.93;81.50;92814.03;5065488;28;20345;-81
2022/11/18 09:08:30;;;;;;;34.15;13.00;;;;;;;11.98;80.80;92811.84;5065434;28;20031;-80
2022/11/18 09:10:55;;;;;;;19.77;8.77;;;;;;;12.02;80.38;92798.59;5065594;28;20063;-80
2022/11/18 09:13:21;;;;;;;11.52;7.30;;;;;;;12.07;79.55;92786.84;5064014;28;20024;-79
2022/11/18 09:15:46;;;;;;;20.75;8.20;;;;;;;12.11;79.50;92801.84;5065059;28;20051;-79
2022/11/18 09:18:11;;;;;;;12.80;7.47;;;;;;;12.19;78.66;92813.44;5065090;28;20053;-80
2022/11/18 09:20:37;;;;;;;14.43;7.45;;;;;;;12.26;77.78;92810.19;5064880;28;20040;-80
2022/11/18 09:23:05;;;;;;;13.77;8.02;;;;;;;12.27;76.56;92790.34;5065158;28;20025;-80
2022/11/18 09:25:30;;;;;;;26.10;8.68;;;;;;;12.29;77.08;92794.19;5064981;28;20017;-79
2022/11/18 09:27:56;;;;;;;14.10;5.50;;;;;;;12.26;75.74;92792.25;5064872;28;20028;-80
2022/11/18 09:30:21;;;;;;;17.60;5.82;;;;;;;12.28;73.18;92794.56;5064959;28;20107;-79
2022/11/18 09:32:47;;;;;;;14.32;6.68;;;;;;;12.27;74.52;92799.13;5064861;28;20087;-77
2022/11/18 09:35:13;;;;;;;15.35;7.13;;;;;;;12.24;75.45;92791.81;5065110;28;20021;-81
2022/11/18 09:37:38;;;;;;;22.38;7.18;;;;;;;12.21;75.30;92798.63;5065332;28;20239;-80
2022/11/18 09:40:04;;;;;;;16.95;8.43;;;;;;;12.21;76.11;92769.25;5065424;28;20062;-76
2022/11/18 09:42:47;;;;;;;24.00;8.65;;;;;;;12.30;77.05;92770.94;5065151;28;20021;-78
2022/11/18 09:45:36;;;;;;;18.15;8.52;;;;;;;12.39;74.63;92777.63;5064844;28;20095;-79
2022/11/18 09:48:19;;;;;;;19.02;8.18;;;;;;;12.40;73.37;92755.13;5065855;28;20262;-79
2022/11/18 09:50:45;;;;;;;27.35;6.97;;;;;;;12.39;74.34;92732.19;5065079;28;20028;-77
2022/11/18 09:53:19;;;;;;;15.38;7.30;;;;;;;12.48;73.76;92739.25;5065978;28;20017;-80
2022/11/18 09:55:46;;;;;;;15.18;7.63;;;;;;;12.60;73.18;92721.16;5065381;28;20219;-78
2022/11/18 09:58:19;;;;;;;17.30;8.40;;;;;;;12.68;73.46;92734.66;5064832;28;20040;-78
2022/11/18 10:00:45;;;;;;;22.77;9.27;;;;;;;12.79;73.87;92746.34;5064947;28;20025;-77
2022/11/18 10:03:24;;;;;;;12.77;7.28;;;;;;;12.90;73.40;92743.84;5064148;28;20032;-76
2022/11/18 10:05:57;;;;;;;15.82;6.75;;;;;;;12.96;69.60;92737.09;5064324;28;20135;-76
2022/11/18 10:08:25;;;;;;;;;;;;;;;12.83;70.67;92745.28;5064579;28;20053;-75
2022/11/18 10:10:57;;;;;;;24.08;10.00;;;;;;;12.75;71.39;92753.53;5064248;28;19947;-76
2022/11/18 10:13:44;;;;;;;18.40;9.40;;;;;;;12.81;72.55;92746.75;5064467;28;20147;-76
2022/11/18 10:16:36;;;;;;;19.75;8.50;;;;;;;12.84;70.38;92744.16;5064407;28;20021;-77
2022/11/18 10:19:07;;;;;;;19.48;8.23;;;;;;;12.83;70.39;92739.16;5055670;28;20036;-77
2022/11/18 10:22:00;;;;;;;20.48;8.05;;;;;;;12.96;68.85;92727.16;5064074;28;20056;-76
2022/11/18 10:24:31;;;;;;;18.25;8.85;;;;;;;13.04;69.09;92707.44;5065741;28;20025;-77
2022/11/18 10:26:59;;;;;;;18.10;8.57;;;;;;;13.23;69.05;92705.84;5064250;28;20026;-78
2022/11/18 10:29:25;;;;;;;36.63;10.73;;;;;;;13.43;68.10;92704.69;5064111;28;20033;-77
2022/11/18 10:32:03;;;;;;;30.52;10.90;;;;;;;13.57;67.17;92700.66;5064049;28;20306;-79
2022/11/18 10:34:29;;;;;;;24.80;10.77;;;;;;;13.64;66.48;92714.94;5064148;28;20036;-78
2022/11/18 10:37:20;;;;;;;20.83;8.75;;;;;;;13.78;65.11;92714.38;5065407;28;20029;-81
2022/11/18 10:39:54;;;;;;;30.63;9.00;;;;;;;13.83;64.88;92687.28;5064125;28;20037;-81
2022/11/18 10:42:33;;;;;;;21.30;8.93;;;;;;;13.93;64.34;92695.81;5064557;28;20279;-77
2022/11/18 10:45:21;;;;;;;25.55;8.88;;;;;;;13.97;64.76;92707.38;5064037;28;20013;-77
2022/11/18 10:48:07;;;;;;;22.55;8.52;;;;;;;14.02;63.77;92709.72;5060841;28;20037;-79
2022/11/18 10:50:50;;;;;;;19.90;8.32;;;;;;;14.13;63.06;92689.22;5062773;28;20096;-81
2022/11/18 10:53:27;;;;;;;37.97;9.05;;;;;;;14.18;63.48;92664.75;5063671;28;20093;-85
2022/11/18 10:56:03;;;;;;;30.20;10.27;;;;;;;14.31;63.29;92675.25;5064048;28;20043;-82
2022/11/18 10:58:30;;;;;;;17.95;9.27;;;;;;;14.43;63.04;92672.31;5063867;28;20053;-77
2022/11/18 11:01:24;;;;;;;23.65;10.98;;;;;;;14.63;64.08;92660.34;5064139;28;20095;-78
2022/11/18 11:03:59;;;;;;;24.40;9.45;;;;;;;14.73;61.71;92650.06;5064349;28;20099;-77
2022/11/18 11:06:36;;;;;;;27.45;9.98;;;;;;;14.81;61.65;92646.31;5064948;28;20028;-79
2022/11/18 11:09:31;;;;;;;23.27;10.48;;;;;;;14.84;61.57;92659.00;5064449;28;20029;-79
2022/11/18 11:12:16;;;;;;;33.67;12.27;;;;;;;14.92;60.89;92667.88;5064736;28;20154;-77
2022/11/18 11:14:59;;;;;;;29.95;13.27;;;;;;;14.99;61.65;92659.91;5064528;28;20033;-79
2022/11/18 11:17:33;;;;;;;;;;;;;;;15.04;61.12;92659.56;5065273;28;20028;-76
2022/11/18 11:20:22;;;;;;;28.35;12.55;;;;;;;15.10;61.22;92671.53;5064192;28;20159;-78
2022/11/18 11:22:48;;;;;;;28.23;12.23;;;;;;;14.97;60.91;92654.91;5063973;28;20047;-78
2022/11/18 11:25:27;;;;;;;31.42;13.75;;;;;;;14.92;60.73;92641.06;5064172;28;20013;-78
2022/11/18 11:28:04;;;;;;;36.63;12.82;;;;;;;14.92;61.69;92651.78;5064690;28;20017;-78
2022/11/18 11:30:35;;;;;;;29.05;13.73;;;;;;;14.82;59.64;92643.28;5062983;28;20074;-78
2022/11/18 11:33:20;;;;;;;31.43;13.07;;;;;;;14.83;60.54;92633.31;5063145;28;20063;-77
2022/11/18 11:36:06;;;;;;;41.38;15.77;;;;;;;14.94;61.29;92615.41;5062790;28;20223;-82
2022/11/18 11:39:00;;;;;;;42.22;15.88;;;;;;;15.04;59.93;92603.22;5062936;28;20118;-78
2022/11/18 11:42:18;;;;;;;35.95;15.90;;;;;;;15.05;60.62;92631.59;5061786;28;20024;-80
2022/11/18 11:45:16;;;;;;;38.53;18.05;;;;;;;15.02;61.38;92640.38;5012986;28;20040;-77
2022/11/18 11:48:03;;;;;;;41.08;17.85;;;;;;;15.04;61.56;92630.03;5062521;28;20313;-78
2022/11/18 11:50:32;;;;;;;39.60;17.52;;;;;;;15.13;61.02;92616.34;5065437;28;20032;-80
2022/11/18 11:52:58;;;;;;;42.85;18.70;;;;;;;15.15;60.82;92600.63;5066664;28;20311;-78
2022/11/18 11:55:30;;;;;;;47.20;19.27;;;;;;;15.13;60.43;92598.31;5066816;28;20067;-77
2022/11/18 11:58:26;;;;;;;43.05;18.83;;;;;;;15.03;60.25;92602.44;5066317;28;20041;-79